Time;durP1;ratioP1;P1;durP2;ratioP2;P2;SDS_P1;SDS_P2;PMS_P1;PMS_P2;Temp;Humidity;BMP_temperature;BMP_pressure;BME280_temperature;BME280_humidity;BME280_pressure;Samples;Min_cycle;Max_cycle;Signal;HPM_P1;HPM_P2
2023/06/06 00:00:25;;;;;;;22.52;12.40;;;;;;;-144.87;100.00;61487.56;4985139;28;20141;-69
2023/06/06 00:02:51;;;;;;;23.27;12.52;;;;;;;-144.87;100.00;61487.56;5000186;28;20045;-69
2023/06/06 00:05:21;;;;;;;24.20;12.52;;;;;;;-144.87;100.00;61487.56;5007919;28;20045;-69
2023/06/06 00:07:47;;;;;;;20.63;11.43;;;;;;;-144.87;100.00;61487.56;4996938;28;20026;-69
2023/06/06 00:10:15;;;;;;;21.92;12.43;;;;;;;-144.87;100.00;61487.56;4994754;28;20526;-69
2023/06/06 00:12:43;;;;;;;24.58;12.75;;;;;;;-144.87;100.00;61487.56;4983467;28;20103;-69
2023/06/06 00:15:11;;;;;;;23.30;13.18;;;;;;;-144.87;100.00;61487.56;4988981;28;20045;-69
2023/06/06 00:17:38;;;;;;;28.30;13.48;;;;;;;-144.87;100.00;61487.56;4993706;28;20042;-70
2023/06/06 00:20:08;;;;;;;21.42;12.63;;;;;;;-144.87;100.00;61487.56;4960482;28;20042;-70
2023/06/06 00:22:36;;;;;;;22.80;13.20;;;;;;;-144.87;100.00;61487.56;4982855;28;20446;-71
2023/06/06 00:25:04;;;;;;;23.63;13.43;;;;;;;-144.87;100.00;61487.56;4990021;28;20387;-69
2023/06/06 00:27:34;;;;;;;29.63;13.48;;;;;;;-144.87;100.00;61487.56;4979369;28;20045;-69
2023/06/06 00:30:00;;;;;;;20.52;12.98;;;;;;;-144.87;100.00;61487.56;4987317;28;20104;-69
2023/06/06 00:32:27;;;;;;;25.55;12.82;;;;;;;-144.87;100.00;61487.56;4976665;28;20074;-70
2023/06/06 00:34:55;;;;;;;25.33;12.45;;;;;;;-144.87;100.00;61487.56;4983090;28;20039;-70
2023/06/06 00:37:21;;;;;;;27.20;13.80;;;;;;;-144.87;100.00;61487.56;4993773;28;20502;-70
2023/06/06 00:39:47;;;;;;;23.20;13.13;;;;;;;-144.87;100.00;61487.56;5012007;28;20037;-69
2023/06/06 00:42:14;;;;;;;27.17;14.00;;;;;;;-144.87;100.00;61487.56;4994238;28;20042;-70
2023/06/06 00:44:40;;;;;;;24.88;14.10;;;;;;;-144.87;100.00;61487.56;4975778;28;20053;-70
2023/06/06 00:47:08;;;;;;;25.13;12.55;;;;;;;-144.87;100.00;61487.56;4997024;28;20096;-70
2023/06/06 00:49:35;;;;;;;28.42;13.75;;;;;;;-144.87;100.00;61487.56;4976862;28;20403;-69
2023/06/06 00:52:01;;;;;;;23.80;13.68;;;;;;;-144.87;100.00;61487.56;4977994;28;20498;-69
2023/06/06 00:54:29;;;;;;;27.40;12.38;;;;;;;-144.87;100.00;61487.56;4964967;28;20065;-69
2023/06/06 00:56:56;;;;;;;25.98;13.80;;;;;;;-144.87;100.00;61487.56;4977556;28;20116;-69
2023/06/06 00:59:23;;;;;;;22.15;12.95;;;;;;;-144.87;100.00;61487.56;4997714;28;20406;-69
2023/06/06 01:01:50;;;;;;;33.15;14.30;;;;;;;-144.87;100.00;61487.56;4994936;28;20030;-70
2023/06/06 01:04:17;;;;;;;32.58;13.88;;;;;;;-144.87;100.00;61487.56;4990583;28;20023;-69
2023/06/06 01:06:43;;;;;;;26.95;14.15;;;;;;;-144.87;100.00;61487.56;4986284;28;20050;-69
2023/06/06 01:09:11;;;;;;;28.02;13.20;;;;;;;-144.87;100.00;61487.56;5011709;28;20407;-70
2023/06/06 01:11:50;;;;;;;29.42;14.85;;;;;;;-144.87;100.00;61487.56;4975877;28;20113;-70
2023/06/06 01:14:40;;;;;;;22.13;12.07;;;;;;;-144.87;100.00;61487.56;5006971;28;20041;-69
2023/06/06 01:17:08;;;;;;;26.70;13.45;;;;;;;-144.87;100.00;61487.56;4991907;28;20156;-68
2023/06/06 01:19:37;;;;;;;25.83;13.48;;;;;;;-144.87;100.00;61487.56;4995390;28;20034;-69
2023/06/06 01:22:05;;;;;;;19.13;12.20;;;;;;;-144.87;100.00;61487.56;5009102;28;20026;-68
2023/06/06 01:24:33;;;;;;;21.63;12.95;;;;;;;-144.87;100.00;61487.56;5003022;28;20564;-68
2023/06/06 01:27:03;;;;;;;24.10;12.55;;;;;;;-144.87;100.00;61487.56;5008510;28;20022;-69
2023/06/06 01:29:30;;;;;;;25.88;12.23;;;;;;;-144.87;100.00;61487.56;4995810;28;20042;-69
2023/06/06 01:32:12;;;;;;;27.13;13.27;;;;;;;-144.87;100.00;61487.56;4995112;28;20033;-69
2023/06/06 01:34:57;;;;;;;24.55;12.73;;;;;;;-144.87;100.00;61487.56;4994252;28;20072;-69
2023/06/06 01:37:44;;;;;;;22.30;11.80;;;;;;;-144.87;100.00;61487.56;4989221;28;20030;-70
2023/06/06 01:40:13;;;;;;;22.80;12.07;;;;;;;-144.87;100.00;61487.56;4979175;28;20038;-70
2023/06/06 01:42:44;;;;;;;22.85;11.88;;;;;;;-144.87;100.00;61487.56;4977960;28;20217;-69
2023/06/06 01:45:11;;;;;;;24.65;13.25;;;;;;;-144.87;100.00;61487.56;4994988;28;20506;-69
2023/06/06 01:47:38;;;;;;;29.02;13.32;;;;;;;-144.87;100.00;61487.56;5000157;28;20041;-71
2023/06/06 01:50:07;;;;;;;25.63;13.35;;;;;;;-144.87;100.00;61487.56;5014491;28;20144;-70
2023/06/06 01:52:40;;;;;;;23.17;12.60;;;;;;;-144.87;100.00;61487.56;4994502;28;20038;-68
2023/06/06 01:55:07;;;;;;;25.23;12.35;;;;;;;-144.87;100.00;61487.56;4966085;28;20091;-69
2023/06/06 01:57:34;;;;;;;29.80;13.05;;;;;;;-144.87;100.00;61487.56;4994926;28;20040;-68
2023/06/06 02:00:04;;;;;;;26.63;12.02;;;;;;;-144.87;100.00;61487.56;5029438;28;20060;-68
2023/06/06 02:02:40;;;;;;;24.10;13.95;;;;;;;-144.87;100.00;61487.56;5017938;28;20494;-70
2023/06/06 02:05:07;;;;;;;25.98;12.52;;;;;;;-144.87;100.00;61487.56;5031973;28;20537;-68
2023/06/06 02:07:34;;;;;;;23.90;12.60;;;;;;;-144.87;100.00;61487.56;5023216;28;20411;-69
2023/06/06 02:10:04;;;;;;;25.13;12.05;;;;;;;-144.87;100.00;61487.56;4994789;28;20107;-69
2023/06/06 02:12:31;;;;;;;24.10;13.02;;;;;;;-144.87;100.00;61487.56;5016930;28;20049;-69
2023/06/06 02:14:58;;;;;;;24.70;13.30;;;;;;;-144.87;100.00;61487.56;5013176;28;20112;-69
2023/06/06 02:17:26;;;;;;;26.00;12.80;;;;;;;-144.87;100.00;61487.56;5007701;28;20064;-69
2023/06/06 02:19:53;;;;;;;28.05;12.20;;;;;;;-144.87;100.00;61487.56;5011695;28;20183;-69
2023/06/06 02:22:20;;;;;;;21.30;12.05;;;;;;;-144.87;100.00;61487.56;5006442;28;20029;-70
2023/06/06 02:24:49;;;;;;;22.20;12.27;;;;;;;-144.87;100.00;61487.56;5039854;28;20057;-69
2023/06/06 02:27:16;;;;;;;25.50;12.63;;;;;;;-144.87;100.00;61487.56;5031068;28;20128;-69
2023/06/06 02:29:42;;;;;;;21.65;12.20;;;;;;;-144.87;100.00;61487.56;5040642;28;20047;-69
2023/06/06 02:32:09;;;;;;;24.80;12.15;;;;;;;-144.87;100.00;61487.56;5018237;28;20044;-69
2023/06/06 02:34:36;;;;;;;30.25;12.60;;;;;;;-144.87;100.00;61487.56;5013163;28;20037;-69
2023/06/06 02:37:06;;;;;;;25.85;12.32;;;;;;;-144.87;100.00;61487.56;5011965;28;20034;-69
2023/06/06 02:39:37;;;;;;;21.77;11.82;;;;;;;-144.87;100.00;61487.56;5024858;28;20040;-69
2023/06/06 02:42:05;;;;;;;26.83;12.75;;;;;;;-144.87;100.00;61487.56;5009581;28;20103;-68
2023/06/06 02:44:32;;;;;;;30.55;12.70;;;;;;;-144.87;100.00;61487.56;4983395;28;20058;-70
2023/06/06 02:46:58;;;;;;;23.80;12.02;;;;;;;-144.87;100.00;61487.56;5016826;28;20545;-68
2023/06/06 02:49:27;;;;;;;21.10;12.00;;;;;;;-144.87;100.00;61487.56;5025331;28;20502;-68
2023/06/06 02:51:55;;;;;;;27.40;12.75;;;;;;;-144.87;100.00;61487.56;5001213;28;20045;-69
2023/06/06 02:54:22;;;;;;;20.58;12.45;;;;;;;-144.87;100.00;61487.56;4995778;28;20029;-68
2023/06/06 02:56:49;;;;;;;26.70;12.60;;;;;;;-144.87;100.00;61487.56;5006745;28;20033;-69
2023/06/06 02:59:15;;;;;;;24.77;12.35;;;;;;;-144.87;100.00;61487.56;5011867;28;20125;-69
2023/06/06 03:01:44;;;;;;;24.42;12.48;;;;;;;-144.87;100.00;61487.56;4991669;28;20052;-69
2023/06/06 03:04:12;;;;;;;25.42;12.18;;;;;;;-144.87;100.00;61487.56;5003960;28;20044;-69
2023/06/06 03:06:41;;;;;;;24.80;11.98;;;;;;;-144.87;100.00;61487.56;5010897;28;20068;-69
2023/06/06 03:09:09;;;;;;;27.27;12.82;;;;;;;-144.87;100.00;61487.56;4997050;28;20079;-67
2023/06/06 03:11:35;;;;;;;27.55;12.98;;;;;;;-144.87;100.00;61487.56;4992833;28;20033;-68
2023/06/06 03:14:03;;;;;;;27.48;12.50;;;;;;;-144.87;100.00;61487.56;4977799;28;20136;-68
2023/06/06 03:16:34;;;;;;;29.85;12.20;;;;;;;-144.87;100.00;61487.56;5010109;28;20529;-69
2023/06/06 03:19:03;;;;;;;22.58;13.05;;;;;;;-144.87;100.00;61487.56;5010843;28;20038;-68
2023/06/06 03:21:30;;;;;;;25.52;12.52;;;;;;;-144.87;100.00;61487.56;4985322;28;20068;-69
2023/06/06 03:23:56;;;;;;;27.17;12.63;;;;;;;-144.87;100.00;61487.56;5025355;28;20037;-69
2023/06/06 03:26:26;;;;;;;26.38;12.68;;;;;;;-144.87;100.00;61487.56;5013990;28;20033;-69
2023/06/06 03:28:56;;;;;;;26.20;12.55;;;;;;;-144.87;100.00;61487.56;5011128;28;20038;-69
2023/06/06 03:31:23;;;;;;;24.10;12.48;;;;;;;-144.87;100.00;61487.56;5009461;28;20034;-68
2023/06/06 03:33:51;;;;;;;28.95;11.98;;;;;;;-144.87;100.00;61487.56;4998349;28;20331;-68
2023/06/06 03:36:21;;;;;;;26.50;11.95;;;;;;;-144.87;100.00;61487.56;5010252;28;20042;-68
2023/06/06 03:38:49;;;;;;;24.70;12.13;;;;;;;-144.87;100.00;61487.56;5020046;28;20038;-68
2023/06/06 03:41:17;;;;;;;25.10;12.73;;;;;;;-144.87;100.00;61487.56;4977213;28;20088;-69
2023/06/06 03:43:43;;;;;;;28.52;12.30;;;;;;;-144.87;100.00;61487.56;5030252;28;20038;-69
2023/06/06 03:46:10;;;;;;;21.92;13.00;;;;;;;-144.87;100.00;61487.56;5012280;28;20026;-69
2023/06/06 03:48:37;;;;;;;25.42;12.05;;;;;;;-144.87;100.00;61487.56;5021022;28;20049;-70
2023/06/06 03:51:03;;;;;;;24.63;12.38;;;;;;;-144.87;100.00;61487.56;5028794;28;20034;-69
2023/06/06 03:53:30;;;;;;;18.42;11.63;;;;;;;-144.87;100.00;61487.56;5005980;28;20506;-70
2023/06/06 03:55:58;;;;;;;28.75;13.02;;;;;;;-144.87;100.00;61487.56;4996422;28;20116;-70
2023/06/06 03:58:25;;;;;;;25.52;12.23;;;;;;;-144.87;100.00;61487.56;5004684;28;20041;-70
2023/06/06 04:00:52;;;;;;;25.58;12.35;;;;;;;-144.87;100.00;61487.56;5009981;28;20487;-70
2023/06/06 04:03:19;;;;;;;26.58;11.45;;;;;;;-144.87;100.00;61487.56;5011812;28;20509;-69
2023/06/06 04:05:48;;;;;;;23.77;11.63;;;;;;;-144.87;100.00;61487.56;5006436;28;20626;-70
2023/06/06 04:08:14;;;;;;;28.15;12.27;;;;;;;-144.87;100.00;61487.56;5006901;28;20038;-69
2023/06/06 04:10:41;;;;;;;25.73;12.35;;;;;;;-144.87;100.00;61487.56;4990576;28;20026;-69
2023/06/06 04:13:07;;;;;;;22.55;11.32;;;;;;;-144.87;100.00;61487.56;5010534;28;20092;-70
2023/06/06 04:15:34;;;;;;;28.73;12.07;;;;;;;-144.87;100.00;61487.56;5029518;28;20406;-70
2023/06/06 04:18:01;;;;;;;27.50;11.93;;;;;;;-144.87;100.00;61487.56;5012946;28;20088;-69
2023/06/06 04:20:28;;;;;;;32.45;12.02;;;;;;;-144.87;100.00;61487.56;4997743;28;20100;-69
2023/06/06 04:22:54;;;;;;;31.25;13.20;;;;;;;-144.87;100.00;61487.56;5011023;28;20060;-70
2023/06/06 04:25:22;;;;;;;18.60;10.82;;;;;;;-144.87;100.00;61487.56;5020819;28;20087;-70
2023/06/06 04:27:50;;;;;;;26.35;11.05;;;;;;;-144.87;100.00;61487.56;5020590;28;20395;-70
2023/06/06 04:30:22;;;;;;;25.23;10.30;;;;;;;-144.87;100.00;61487.56;5017013;28;20478;-70
2023/06/06 04:32:53;;;;;;;29.15;9.88;;;;;;;-144.87;100.00;61487.56;5000503;28;20519;-70
2023/06/06 04:35:20;;;;;;;;;;;;;;;-144.87;100.00;61487.56;5013876;28;20500;-70
2023/06/06 04:37:50;;;;;;;19.52;8.77;;;;;;;-144.87;100.00;61487.56;5046190;28;19924;-68
2023/06/06 04:40:21;;;;;;;15.98;8.90;;;;;;;-144.87;100.00;61487.56;5035274;28;20048;-69
2023/06/06 04:42:49;;;;;;;16.17;9.13;;;;;;;-144.87;100.00;61487.56;5019552;28;20110;-69
2023/06/06 04:45:17;;;;;;;15.15;7.57;;;;;;;-144.87;100.00;61487.56;5052921;28;20276;-69
2023/06/06 04:47:46;;;;;;;18.65;8.60;;;;;;;-144.87;100.00;61487.56;5034753;28;20040;-68
2023/06/06 04:50:12;;;;;;;17.73;7.95;;;;;;;-144.87;100.00;61487.56;4997912;28;20034;-69
2023/06/06 04:52:39;;;;;;;17.15;7.57;;;;;;;-144.87;100.00;61487.56;5013902;28;20084;-69
2023/06/06 04:55:07;;;;;;;16.65;7.65;;;;;;;-144.87;100.00;61487.56;5030219;28;20077;-68
2023/06/06 04:57:33;;;;;;;15.10;7.38;;;;;;;-144.87;100.00;61487.56;5034514;28;20060;-69
2023/06/06 05:00:01;;;;;;;15.70;7.50;;;;;;;-144.87;100.00;61487.56;5034559;28;20095;-68
2023/06/06 05:02:29;;;;;;;16.83;6.80;;;;;;;-144.87;100.00;61487.56;5030688;28;20033;-68
2023/06/06 05:04:58;;;;;;;19.90;7.75;;;;;;;-144.87;100.00;61487.56;5029746;28;20057;-70
2023/06/06 05:07:24;;;;;;;10.93;6.72;;;;;;;-144.87;100.00;61487.56;5011720;28;20033;-67
2023/06/06 05:09:54;;;;;;;16.45;6.63;;;;;;;-144.87;100.00;61487.56;5022517;28;20064;-69
2023/06/06 05:12:21;;;;;;;17.77;7.30;;;;;;;-144.87;100.00;61487.56;5019423;28;20423;-69
2023/06/06 05:14:48;;;;;;;14.65;7.03;;;;;;;-144.87;100.00;61487.56;5013619;28;20117;-69
2023/06/06 05:17:23;;;;;;;13.60;7.78;;;;;;;-144.87;100.00;61487.56;5023220;28;20483;-69
2023/06/06 05:19:49;;;;;;;18.85;7.22;;;;;;;-144.87;100.00;61487.56;5026316;28;20395;-69
2023/06/06 05:22:16;;;;;;;13.43;6.50;;;;;;;-144.87;100.00;61487.56;5017219;28;20053;-68
2023/06/06 05:24:43;;;;;;;16.98;7.10;;;;;;;-144.87;100.00;61487.56;5011577;28;20128;-70
2023/06/06 05:27:10;;;;;;;14.65;7.55;;;;;;;-144.87;100.00;61487.56;5020905;28;20041;-70
2023/06/06 05:29:37;;;;;;;13.30;6.43;;;;;;;-144.87;100.00;61487.56;5016322;28;20129;-68
2023/06/06 05:32:04;;;;;;;19.60;7.90;;;;;;;-144.87;100.00;61487.56;5004838;28;20038;-70
2023/06/06 05:34:32;;;;;;;20.00;7.25;;;;;;;-144.87;100.00;61487.56;4998786;28;20406;-70
2023/06/06 05:36:58;;;;;;;20.33;7.22;;;;;;;-144.87;100.00;61487.56;4998556;28;20037;-69
2023/06/06 05:39:25;;;;;;;16.85;7.60;;;;;;;-144.87;100.00;61487.56;4994867;28;20036;-69
2023/06/06 05:41:54;;;;;;;13.50;7.07;;;;;;;-144.87;100.00;61487.56;5008980;28;20041;-69
2023/06/06 05:44:22;;;;;;;12.73;6.57;;;;;;;-144.87;100.00;61487.56;5010383;28;20137;-69
2023/06/06 05:46:53;;;;;;;15.40;6.20;;;;;;;-144.87;100.00;61487.56;5002095;28;20049;-68
2023/06/06 05:49:20;;;;;;;13.82;6.53;;;;;;;-144.87;100.00;61487.56;5015863;28;20530;-68
2023/06/06 05:51:47;;;;;;;12.10;6.85;;;;;;;-144.87;100.00;61487.56;5021090;28;20052;-69
2023/06/06 05:54:16;;;;;;;14.48;6.45;;;;;;;-144.87;100.00;61487.56;5023056;28;20489;-68
2023/06/06 05:56:42;;;;;;;16.88;6.82;;;;;;;-144.87;100.00;61487.56;5020743;28;20520;-69
2023/06/06 05:59:09;;;;;;;13.40;6.20;;;;;;;-144.87;100.00;61487.56;5006484;28;20046;-69
2023/06/06 06:01:37;;;;;;;19.75;7.00;;;;;;;-144.87;100.00;61487.56;5011853;28;20129;-68
2023/06/06 06:04:03;;;;;;;13.18;5.97;;;;;;;-144.87;100.00;61487.56;5026321;28;20545;-69
2023/06/06 06:06:31;;;;;;;22.25;6.38;;;;;;;-144.87;100.00;61487.56;4985828;28;20068;-69
2023/06/06 06:08:58;;;;;;;29.55;7.00;;;;;;;-144.87;100.00;61487.56;5022324;28;20132;-69
2023/06/06 06:11:26;;;;;;;10.52;5.45;;;;;;;-144.87;100.00;61487.56;5023644;28;20052;-69
2023/06/06 06:13:52;;;;;;;10.48;5.88;;;;;;;-144.87;100.00;61487.56;5006971;28;20118;-69
2023/06/06 06:16:18;;;;;;;11.77;5.65;;;;;;;-144.87;100.00;61487.56;5012545;28;20037;-69
2023/06/06 06:18:45;;;;;;;14.05;6.15;;;;;;;-144.87;100.00;61487.56;5011866;28;20091;-68
2023/06/06 06:21:11;;;;;;;8.68;5.43;;;;;;;-144.87;100.00;61487.56;5027857;28;20113;-69
2023/06/06 06:23:37;;;;;;;13.45;5.88;;;;;;;-144.87;100.00;61487.56;5021697;28;20075;-69
2023/06/06 06:26:04;;;;;;;13.02;6.05;;;;;;;-144.87;100.00;61487.56;4981364;28;20084;-70
2023/06/06 06:28:30;;;;;;;15.23;6.05;;;;;;;-144.87;100.00;61487.56;5012488;28;20113;-69
2023/06/06 06:30:56;;;;;;;46.97;9.25;;;;;;;-144.87;100.00;61487.56;5012314;28;20395;-69
2023/06/06 06:33:23;;;;;;;16.70;5.85;;;;;;;-144.87;100.00;61487.56;5030908;28;20059;-70
2023/06/06 06:35:49;;;;;;;14.23;5.20;;;;;;;-144.87;100.00;61487.56;5022123;28;20039;-69
2023/06/06 06:38:15;;;;;;;15.35;5.53;;;;;;;-144.87;100.00;61487.56;5031326;28;20402;-69
2023/06/06 06:40:42;;;;;;;13.88;5.50;;;;;;;-144.87;100.00;61487.56;5015394;28;20052;-69
2023/06/06 06:43:08;;;;;;;12.73;5.10;;;;;;;-144.87;100.00;61487.56;5015944;28;20030;-68
2023/06/06 06:45:42;;;;;;;11.82;5.07;;;;;;;-144.87;100.00;61487.56;5008532;28;20573;-69
2023/06/06 06:48:08;;;;;;;14.40;5.35;;;;;;;-144.87;100.00;61487.56;5006423;28;20124;-69
2023/06/06 06:50:34;;;;;;;12.27;5.47;;;;;;;-144.87;100.00;61487.56;5020092;28;20109;-70
2023/06/06 06:53:02;;;;;;;15.77;5.07;;;;;;;-144.87;100.00;61487.56;5006578;28;20499;-69
2023/06/06 06:55:30;;;;;;;13.48;5.45;;;;;;;-144.87;100.00;61487.56;5021720;28;20041;-69
2023/06/06 06:57:58;;;;;;;14.55;4.70;;;;;;;-144.87;100.00;61487.56;5019551;28;20029;-69
2023/06/06 07:00:25;;;;;;;13.70;5.00;;;;;;;-144.87;100.00;61487.56;4994383;28;20054;-69
2023/06/06 07:02:53;;;;;;;16.80;5.78;;;;;;;-144.87;100.00;61487.56;4948152;28;20049;-69
2023/06/06 07:05:20;;;;;;;15.43;5.45;;;;;;;-144.87;100.00;61487.56;4998172;28;20042;-68
2023/06/06 07:07:56;;;;;;;11.63;5.40;;;;;;;-144.87;100.00;61487.56;4995619;28;20042;-70
2023/06/06 07:10:23;;;;;;;13.73;5.00;;;;;;;-144.87;100.00;61487.56;4997473;28;20057;-68
2023/06/06 07:12:51;;;;;;;14.18;5.00;;;;;;;-144.87;100.00;61487.56;5002274;28;20045;-70
2023/06/06 07:15:21;;;;;;;13.90;4.63;;;;;;;-144.87;100.00;61487.56;4980327;28;20022;-68
2023/06/06 07:17:49;;;;;;;16.00;4.80;;;;;;;-144.87;100.00;61487.56;5002548;28;20030;-68
2023/06/06 07:20:18;;;;;;;13.18;4.70;;;;;;;-144.87;100.00;61487.56;5004042;28;20061;-69
2023/06/06 07:22:44;;;;;;;7.93;4.30;;;;;;;-144.87;100.00;61487.56;4982847;28;20038;-68
2023/06/06 07:25:11;;;;;;;12.35;4.72;;;;;;;-144.87;100.00;61487.56;4992403;28;20065;-70
2023/06/06 07:27:38;;;;;;;11.35;4.20;;;;;;;-144.87;100.00;61487.56;4983452;28;20050;-69
2023/06/06 07:30:12;;;;;;;18.92;5.03;;;;;;;-144.87;100.00;61487.56;4985943;28;20055;-68
2023/06/06 07:32:47;;;;;;;10.48;4.72;;;;;;;-144.87;100.00;61487.56;4985765;28;20049;-69
2023/06/06 07:35:15;;;;;;;11.00;4.32;;;;;;;-144.87;100.00;61487.56;4988278;28;20586;-69
2023/06/06 07:37:41;;;;;;;8.98;4.53;;;;;;;-144.87;100.00;61487.56;4975146;28;20042;-68
2023/06/06 07:40:10;;;;;;;11.70;4.65;;;;;;;-144.87;100.00;61487.56;4994323;28;20053;-69
2023/06/06 07:42:37;;;;;;;12.80;4.43;;;;;;;-144.87;100.00;61487.56;4984486;28;20030;-69
2023/06/06 07:45:04;;;;;;;14.82;4.68;;;;;;;-144.87;100.00;61487.56;4999880;28;20439;-70
2023/06/06 07:47:30;;;;;;;11.57;4.60;;;;;;;-144.87;100.00;61487.56;4980172;28;20113;-68
2023/06/06 07:49:57;;;;;;;14.75;5.43;;;;;;;-144.87;100.00;61487.56;4974922;28;20030;-69
2023/06/06 07:52:25;;;;;;;12.60;4.53;;;;;;;-144.87;100.00;61487.56;4990128;28;20037;-68
2023/06/06 07:54:51;;;;;;;9.73;4.55;;;;;;;-144.87;100.00;61487.56;4991604;28;20076;-69
2023/06/06 07:57:19;;;;;;;15.68;4.97;;;;;;;-144.87;100.00;61487.56;5004868;28;20034;-69
2023/06/06 07:59:46;;;;;;;17.73;4.82;;;;;;;-144.87;100.00;61487.56;5007190;28;20052;-69
2023/06/06 08:02:14;;;;;;;10.88;4.43;;;;;;;-144.87;100.00;61487.56;5008950;28;20037;-68
2023/06/06 08:04:45;;;;;;;22.60;5.38;;;;;;;-144.87;100.00;61487.56;4979378;28;20042;-68
2023/06/06 08:07:15;;;;;;;10.32;4.65;;;;;;;-144.87;100.00;61487.56;5028388;28;20339;-69
2023/06/06 08:09:42;;;;;;;9.10;4.43;;;;;;;-144.87;100.00;61487.56;5025758;28;20037;-69
2023/06/06 08:12:09;;;;;;;12.48;4.28;;;;;;;-144.87;100.00;61487.56;5024261;28;20037;-69
2023/06/06 08:14:36;;;;;;;22.23;4.88;;;;;;;-144.87;100.00;61487.56;5007588;28;20038;-69
2023/06/06 08:17:04;;;;;;;13.32;4.95;;;;;;;-144.87;100.00;61487.56;5015279;28;20382;-69
2023/06/06 08:19:30;;;;;;;15.65;4.40;;;;;;;-144.87;100.00;61487.56;5015473;28;20501;-69
2023/06/06 08:21:57;;;;;;;10.88;5.45;;;;;;;-144.87;100.00;61487.56;5032765;28;20052;-69
2023/06/06 08:24:23;;;;;;;10.82;4.43;;;;;;;-144.87;100.00;61487.56;5012889;28;20045;-69
2023/06/06 08:26:49;;;;;;;10.43;4.72;;;;;;;-144.87;100.00;61487.56;5013267;28;20069;-69
2023/06/06 08:29:16;;;;;;;10.73;4.50;;;;;;;-144.87;100.00;61487.56;5014967;28;20113;-71
2023/06/06 08:31:43;;;;;;;11.10;4.70;;;;;;;-144.87;100.00;61487.56;5032451;28;20516;-70
2023/06/06 08:34:10;;;;;;;9.27;4.20;;;;;;;-144.87;100.00;61487.56;5032754;28;20489;-69
2023/06/06 08:36:37;;;;;;;13.38;4.45;;;;;;;-144.87;100.00;61487.56;5014470;28;20025;-68
2023/06/06 08:39:04;;;;;;;15.30;5.25;;;;;;;-144.87;100.00;61487.56;5007080;28;20069;-69
2023/06/06 08:41:33;;;;;;;12.82;4.72;;;;;;;-144.87;100.00;61487.56;5025617;28;20549;-70
2023/06/06 08:44:02;;;;;;;11.10;4.53;;;;;;;-144.87;100.00;61487.56;5032823;28;20041;-68
2023/06/06 08:46:33;;;;;;;11.88;4.97;;;;;;;-144.87;100.00;61487.56;5037836;28;20213;-69
2023/06/06 08:49:04;;;;;;;11.82;4.80;;;;;;;-144.87;100.00;61487.56;5035782;28;20030;-68
2023/06/06 08:51:31;;;;;;;12.70;5.10;;;;;;;-144.87;100.00;61487.56;5037569;28;20033;-68
2023/06/06 08:53:59;;;;;;;10.60;5.32;;;;;;;-144.87;100.00;61487.56;5018735;28;20116;-67
2023/06/06 08:56:26;;;;;;;12.88;4.78;;;;;;;-144.87;100.00;61487.56;5036010;28;20030;-69
2023/06/06 08:58:53;;;;;;;13.30;4.78;;;;;;;-144.87;100.00;61487.56;5026080;28;20042;-69
2023/06/06 09:01:20;;;;;;;19.83;5.55;;;;;;;-144.87;100.00;61487.56;4991812;28;20034;-70
2023/06/06 09:03:48;;;;;;;13.63;5.10;;;;;;;-144.87;100.00;61487.56;4975458;28;20030;-69
2023/06/06 09:06:17;;;;;;;17.75;5.28;;;;;;;-144.87;100.00;61487.56;4978374;28;20030;-69
2023/06/06 09:08:44;;;;;;;13.82;5.53;;;;;;;-144.87;100.00;61487.56;4998937;28;20031;-71
2023/06/06 09:11:11;;;;;;;10.75;5.18;;;;;;;-144.87;100.00;61487.56;5010273;28;20038;-70
2023/06/06 09:13:43;;;;;;;15.70;5.32;;;;;;;-144.87;100.00;61487.56;4994478;28;20073;-69
2023/06/06 09:16:10;;;;;;;12.55;6.13;;;;;;;-144.87;100.00;61487.56;4991678;28;20058;-70
2023/06/06 09:18:38;;;;;;;39.88;7.63;;;;;;;-144.87;100.00;61487.56;4975134;28;20064;-70
2023/06/06 09:21:05;;;;;;;11.93;5.45;;;;;;;-144.87;100.00;61487.56;4977129;28;20512;-68
2023/06/06 09:23:31;;;;;;;17.48;6.05;;;;;;;-144.87;100.00;61487.56;5010180;28;20125;-68
2023/06/06 09:25:58;;;;;;;12.48;5.47;;;;;;;-144.87;100.00;61487.56;4995735;28;20037;-69
2023/06/06 09:28:38;;;;;;;11.27;5.95;;;;;;;-144.87;100.00;61487.56;4995381;28;20030;-69
2023/06/06 09:31:30;;;;;;;15.60;6.05;;;;;;;-144.87;100.00;61487.56;5013317;28;20046;-69
2023/06/06 09:33:58;;;;;;;14.93;5.75;;;;;;;-144.87;100.00;61487.56;5013000;28;20029;-69
2023/06/06 09:36:29;;;;;;;16.90;6.30;;;;;;;-144.87;100.00;61487.56;5009856;28;20038;-69
2023/06/06 09:39:04;;;;;;;17.35;5.88;;;;;;;-144.87;100.00;61487.56;5012170;28;20073;-69
2023/06/06 09:41:31;;;;;;;12.88;5.85;;;;;;;-144.87;100.00;61487.56;4995114;28;20030;-69
2023/06/06 09:43:58;;;;;;;17.05;5.57;;;;;;;-144.87;100.00;61487.56;4994186;28;20096;-67
2023/06/06 09:46:26;;;;;;;16.10;5.90;;;;;;;-144.87;100.00;61487.56;4994417;28;20062;-68
2023/06/06 09:48:59;;;;;;;15.82;5.93;;;;;;;-144.87;100.00;61487.56;5011547;28;20029;-68
2023/06/06 09:51:25;;;;;;;20.92;6.60;;;;;;;-144.87;100.00;61487.56;5001370;28;20042;-68
2023/06/06 09:53:52;;;;;;;11.77;5.93;;;;;;;-144.87;100.00;61487.56;5011382;28;20042;-69
2023/06/06 09:56:24;;;;;;;21.60;7.53;;;;;;;-144.87;100.00;61487.56;4987142;28;20562;-70
2023/06/06 09:58:55;;;;;;;15.82;6.18;;;;;;;-144.87;100.00;61487.56;4978798;28;20050;-69
2023/06/06 10:01:33;;;;;;;16.73;5.95;;;;;;;-144.87;100.00;61487.56;4996812;28;20041;-69
2023/06/06 10:04:01;;;;;;;23.88;7.40;;;;;;;-144.87;100.00;61487.56;5002557;28;20092;-68
2023/06/06 10:06:33;;;;;;;16.15;6.70;;;;;;;-144.87;100.00;61487.56;5011128;28;20041;-70
2023/06/06 10:09:00;;;;;;;16.58;6.82;;;;;;;-144.87;100.00;61487.56;4993720;28;20068;-69
2023/06/06 10:11:28;;;;;;;13.13;6.15;;;;;;;-144.87;100.00;61487.56;5022963;28;20039;-68
2023/06/06 10:13:55;;;;;;;12.20;6.18;;;;;;;-144.87;100.00;61487.56;5028454;28;20033;-69
2023/06/06 10:16:21;;;;;;;15.90;6.07;;;;;;;-144.87;100.00;61487.56;5009348;28;20108;-69
2023/06/06 10:18:50;;;;;;;13.77;6.90;;;;;;;-144.87;100.00;61487.56;5007362;28;20041;-70
2023/06/06 10:21:16;;;;;;;13.60;6.47;;;;;;;-144.87;100.00;61487.56;5012373;28;20036;-69
2023/06/06 10:23:43;;;;;;;18.85;6.95;;;;;;;-144.87;100.00;61487.56;5014313;28;20030;-68
2023/06/06 10:26:17;;;;;;;17.67;7.50;;;;;;;-144.87;100.00;61487.56;4993137;28;20057;-70
2023/06/06 10:28:50;;;;;;;12.75;6.03;;;;;;;-144.87;100.00;61487.56;4993176;28;20036;-73
2023/06/06 10:31:30;;;;;;;14.65;5.95;;;;;;;-144.87;100.00;61487.56;4994253;28;20092;-68
2023/06/06 10:34:00;;;;;;;13.05;6.68;;;;;;;-144.87;100.00;61487.56;5006231;28;20196;-69
2023/06/06 10:36:27;;;;;;;11.85;6.72;;;;;;;-144.87;100.00;61487.56;5022827;28;20049;-68
2023/06/06 10:39:15;;;;;;;13.77;6.65;;;;;;;-144.87;100.00;61487.56;4991713;28;20072;-70
2023/06/06 10:41:48;;;;;;;11.85;6.35;;;;;;;-144.87;100.00;61487.56;5023858;28;20029;-68
2023/06/06 10:44:14;;;;;;;14.60;6.63;;;;;;;-144.87;100.00;61487.56;5030072;28;20064;-69
2023/06/06 10:46:41;;;;;;;18.38;6.72;;;;;;;-144.87;100.00;61487.56;4994394;28;20056;-69
2023/06/06 10:49:08;;;;;;;14.55;6.85;;;;;;;-144.87;100.00;61487.56;5011572;28;20073;-70
2023/06/06 10:51:36;;;;;;;11.15;6.78;;;;;;;-144.87;100.00;61487.56;5016422;28;20573;-70
2023/06/06 10:54:21;;;;;;;14.82;6.63;;;;;;;-144.87;100.00;61487.56;4993047;28;20041;-70
2023/06/06 10:56:52;;;;;;;13.70;6.78;;;;;;;-144.87;100.00;61487.56;4999642;28;20069;-70
2023/06/06 10:59:26;;;;;;;13.35;6.50;;;;;;;-144.87;100.00;61487.56;5006863;28;20038;-69
2023/06/06 11:01:53;;;;;;;10.93;6.22;;;;;;;-144.87;100.00;61487.56;4995076;28;20034;-69
2023/06/06 11:04:30;;;;;;;15.35;6.55;;;;;;;-144.87;100.00;61487.56;4972218;28;20487;-68